Main page
METAR-TAF:

METAR-TAF

Airports :

Kirksville Regional Airport

Kirksville, Missouri, United States

latitude: 40-05-50N, longitude: 092-32-36W, elevation: 964 ft

Current weather observation

The report was made 28 minutes ago, at 06:55 UTC
Wind 5 mph from the West/Southwest
Temperature 39°F
Humidity 60%
Pressure 30.18 in. Hg
Visibility: 10 miles
Clear sky

METAR: KIRK 220655Z AUTO 24004KT 10SM CLR 04/M03 A3018 RMK AO2 SLP228 T00441028

Time: 02:23 (07:23 UTC)


TAF: missing

Weather observations and forecasts of more than 4000 airports (METAR and TAF reports).

The available stations are represented by yellow and red dots on the map.

Hover mouse over dot to see the name of the station.

Then click to see weather observations and forecasts.

To change the map : click on the green buttons with a black cross to zoom in, on the green button with a dash to zoom out, or on the green arrows for adjacent maps.


METAR-TAF: